createdAt,value
2022-10-04T00:01:47.044Z,1.20
2022-10-04T00:04:22.913Z,1.00
2022-10-04T00:07:04.938Z,0.97
2022-10-04T00:09:57.446Z,1.13
2022-10-04T00:12:27.123Z,1.33
2022-10-04T00:14:57.478Z,1.10
2022-10-04T00:17:28.921Z,1.03
2022-10-04T00:19:56.356Z,1.10
2022-10-04T00:22:30.707Z,1.10
2022-10-04T00:25:08.376Z,1.10
2022-10-04T00:27:36.814Z,1.07
2022-10-04T00:30:03.479Z,1.20
2022-10-04T00:32:31.271Z,0.93
2022-10-04T00:34:59.859Z,1.00
2022-10-04T00:37:27.669Z,1.27
2022-10-04T00:40:02.163Z,1.27
2022-10-04T00:42:42.830Z,1.07
2022-10-04T00:45:19.266Z,1.17
2022-10-04T00:47:48.712Z,1.10
2022-10-04T00:50:27.301Z,1.03
2022-10-04T00:52:58.154Z,1.27
2022-10-04T00:55:46.114Z,1.33
2022-10-04T00:58:40.881Z,1.23
2022-10-04T01:01:08.820Z,1.10
2022-10-04T01:03:43.887Z,1.10
2022-10-04T01:06:12.902Z,0.80
2022-10-04T01:08:55.071Z,0.97
2022-10-04T01:11:29.109Z,0.93
2022-10-04T01:14:07.374Z,1.30
2022-10-04T01:16:36.352Z,1.20
2022-10-04T01:19:28.546Z,1.10
2022-10-04T01:22:31.922Z,0.93
2022-10-04T01:24:58.635Z,1.20
2022-10-04T01:27:45.106Z,1.00
2022-10-04T01:30:16.268Z,1.20
2022-10-04T01:32:45.398Z,1.10
2022-10-04T01:35:14.817Z,1.40
2022-10-04T01:37:41.746Z,0.93
2022-10-04T01:40:10.192Z,1.40
2022-10-04T01:42:52.154Z,1.20
2022-10-04T01:45:37.497Z,1.10
2022-10-04T01:48:09.742Z,0.90
2022-10-04T01:50:42.412Z,1.30
2022-10-04T01:53:21.682Z,1.03
2022-10-04T01:55:53.105Z,1.20
2022-10-04T01:58:30.734Z,1.37
2022-10-04T02:01:21.000Z,1.30
2022-10-04T02:03:58.526Z,1.33
2022-10-04T02:06:25.865Z,1.10
2022-10-04T02:08:57.534Z,1.30
2022-10-04T02:11:30.172Z,1.00
2022-10-04T02:13:57.865Z,1.13
2022-10-04T02:16:26.490Z,0.87
2022-10-04T02:18:54.390Z,1.20
2022-10-04T02:21:22.832Z,1.37
2022-10-04T02:23:51.225Z,1.23
2022-10-04T02:26:18.007Z,0.90
2022-10-04T02:28:44.718Z,1.10
2022-10-04T02:31:30.402Z,1.30
2022-10-04T02:33:59.235Z,1.53
2022-10-04T02:36:28.489Z,1.10
2022-10-04T02:39:19.760Z,1.00
2022-10-04T02:42:01.535Z,1.10
2022-10-04T02:44:33.283Z,1.13
2022-10-04T02:47:20.673Z,1.20
2022-10-04T02:49:52.645Z,0.90
2022-10-04T02:52:34.005Z,1.10
2022-10-04T02:55:13.339Z,1.10
2022-10-04T02:57:42.954Z,1.10
2022-10-04T03:00:12.505Z,1.10
2022-10-04T03:02:40.112Z,1.47
2022-10-04T03:05:13.427Z,0.87
2022-10-04T03:07:40.918Z,1.10
2022-10-04T03:10:11.918Z,1.00
2022-10-04T03:12:40.837Z,1.20
2022-10-04T03:15:10.377Z,1.00
2022-10-04T03:17:37.280Z,1.07
2022-10-04T03:20:06.146Z,1.40
2022-10-04T03:22:32.993Z,0.83
2022-10-04T03:24:59.790Z,1.03
2022-10-04T03:27:31.318Z,0.97
2022-10-04T03:29:59.583Z,1.07
2022-10-04T03:32:30.475Z,1.00
2022-10-04T03:35:00.730Z,1.40
2022-10-04T03:37:30.605Z,1.10
2022-10-04T03:39:57.819Z,1.20
2022-10-04T03:42:28.557Z,1.10
2022-10-04T03:45:00.928Z,0.93
2022-10-04T03:47:37.590Z,1.03
2022-10-04T03:50:26.515Z,1.10
2022-10-04T03:52:59.826Z,1.17
2022-10-04T03:55:33.915Z,1.07
2022-10-04T03:58:01.839Z,0.90
2022-10-04T04:00:29.568Z,1.00
2022-10-04T04:03:03.835Z,1.03
2022-10-04T04:05:41.690Z,1.00
2022-10-04T04:08:23.670Z,1.20
2022-10-04T04:10:56.430Z,1.00
2022-10-04T04:14:03.061Z,1.17
2022-10-04T04:16:30.558Z,1.07
2022-10-04T04:19:02.152Z,1.30
2022-10-04T04:21:30.555Z,1.07
2022-10-04T04:24:05.908Z,1.13
2022-10-04T04:26:48.193Z,1.07
2022-10-04T04:29:25.917Z,1.20
2022-10-04T04:32:02.636Z,1.23
2022-10-04T04:34:52.850Z,1.43
2022-10-04T04:37:20.469Z,1.40
2022-10-04T04:39:55.375Z,1.20
2022-10-04T04:42:31.730Z,1.40
2022-10-04T04:45:16.543Z,1.40
2022-10-04T04:47:50.396Z,1.10
2022-10-04T04:50:22.964Z,1.27
2022-10-04T04:52:57.195Z,0.90
2022-10-04T04:55:50.051Z,1.43
2022-10-04T04:58:24.130Z,1.10
2022-10-04T05:01:00.264Z,1.10
2022-10-04T05:03:29.944Z,1.10
2022-10-04T05:05:58.365Z,1.27
2022-10-04T05:08:29.998Z,0.93
2022-10-04T05:11:13.391Z,1.13
2022-10-04T05:13:52.058Z,1.10
2022-10-04T05:16:38.505Z,1.00
2022-10-04T05:19:21.665Z,1.10
2022-10-04T05:21:52.585Z,0.80
2022-10-04T05:24:24.765Z,1.00
2022-10-04T05:26:54.341Z,0.97
2022-10-04T05:29:26.798Z,0.90
2022-10-04T05:32:17.359Z,1.20
2022-10-04T05:34:48.541Z,0.80
2022-10-04T05:37:30.062Z,1.00
2022-10-04T05:40:10.686Z,1.20
2022-10-04T05:42:45.210Z,1.20
2022-10-04T05:45:25.976Z,0.93
2022-10-04T05:47:58.211Z,4.27
2022-10-04T05:50:43.615Z,4.30
2022-10-04T05:53:26.898Z,5.87
2022-10-04T05:56:02.373Z,7.70
2022-10-04T05:58:34.980Z,9.23
2022-10-04T06:01:13.475Z,9.90
2022-10-04T06:03:59.150Z,11.40
2022-10-04T06:06:56.910Z,11.03
2022-10-04T06:09:33.076Z,12.23
2022-10-04T06:12:45.191Z,12.50
2022-10-04T06:15:31.805Z,13.60
2022-10-04T06:18:16.559Z,13.60
2022-10-04T06:20:43.741Z,13.67
2022-10-04T06:23:18.717Z,12.93
2022-10-04T06:26:08.124Z,14.60
2022-10-04T06:28:40.969Z,14.43
2022-10-04T06:31:36.258Z,12.60
2022-10-04T06:34:22.318Z,12.50
2022-10-04T06:37:42.407Z,14.80
2022-10-04T06:40:09.080Z,14.87
2022-10-04T06:42:36.585Z,15.40
2022-10-04T06:45:22.256Z,14.50
2022-10-04T06:48:00.927Z,14.30
2022-10-04T06:50:33.805Z,13.90
2022-10-04T06:53:18.635Z,15.37
2022-10-04T06:56:05.703Z,12.80
2022-10-04T06:58:34.868Z,14.27
2022-10-04T07:01:22.403Z,14.13
2022-10-04T07:03:52.364Z,18.57
2022-10-04T07:06:27.730Z,18.70
2022-10-04T07:08:59.705Z,19.00
2022-10-04T07:11:36.995Z,18.77
2022-10-04T07:14:03.609Z,20.20
2022-10-04T07:16:51.029Z,18.73
2022-10-04T07:19:20.445Z,18.33
2022-10-04T07:21:56.453Z,19.77
2022-10-04T07:24:50.566Z,18.17
2022-10-04T07:27:31.462Z,19.60
2022-10-04T07:30:14.685Z,19.03
2022-10-04T07:32:46.938Z,18.47
2022-10-04T07:35:25.316Z,18.20
2022-10-04T07:37:55.087Z,16.97
2022-10-04T07:40:33.903Z,17.83
2022-10-04T07:43:12.077Z,17.10
2022-10-04T07:45:41.355Z,17.40
2022-10-04T07:48:15.774Z,18.57
2022-10-04T07:51:14.043Z,16.77
2022-10-04T07:54:16.635Z,16.40
2022-10-04T07:56:55.595Z,18.50
2022-10-04T07:59:53.228Z,16.40
2022-10-04T08:02:41.997Z,17.13
2022-10-04T08:05:11.559Z,17.50
2022-10-04T08:08:05.427Z,17.37
2022-10-04T08:10:43.981Z,17.63
2022-10-04T08:13:20.552Z,16.83
2022-10-04T08:15:47.484Z,16.70
2022-10-04T08:18:35.352Z,14.77
2022-10-04T08:21:31.790Z,14.83
2022-10-04T08:24:32.418Z,13.60
2022-10-04T08:27:37.671Z,13.87
2022-10-04T08:30:16.647Z,12.20
2022-10-04T08:32:49.181Z,12.70
2022-10-04T08:35:16.457Z,9.90
2022-10-04T08:38:01.094Z,9.87
2022-10-04T08:41:09.299Z,10.00
2022-10-04T08:43:49.589Z,10.23
2022-10-04T08:46:41.222Z,9.67
2022-10-04T08:49:16.902Z,9.40
2022-10-04T08:51:55.436Z,8.47
2022-10-04T08:54:40.297Z,8.83
2022-10-04T08:57:14.980Z,8.10
2022-10-04T08:59:57.768Z,7.77
2022-10-04T09:02:43.411Z,7.43
2022-10-04T09:05:22.205Z,8.77
2022-10-04T09:08:23.088Z,7.83
2022-10-04T09:11:14.617Z,7.63
2022-10-04T09:14:24.681Z,7.63
2022-10-04T09:17:23.121Z,7.20
2022-10-04T09:20:37.880Z,7.20
2022-10-04T09:23:29.478Z,7.87
2022-10-04T09:26:19.414Z,8.87
2022-10-04T09:29:17.100Z,9.17
2022-10-04T09:31:43.755Z,9.23
2022-10-04T09:34:53.126Z,9.63
2022-10-04T09:37:57.752Z,9.67
2022-10-04T09:40:47.090Z,10.10
2022-10-04T09:43:47.508Z,8.60
2022-10-04T09:46:48.924Z,9.73
2022-10-04T09:49:59.163Z,8.43
2022-10-04T09:52:41.823Z,9.70
2022-10-04T09:55:14.678Z,10.30
2022-10-04T09:57:53.573Z,10.00
2022-10-04T10:00:24.864Z,9.13
2022-10-04T10:03:17.486Z,9.20
2022-10-04T10:06:03.305Z,9.80
2022-10-04T10:09:01.105Z,8.40
2022-10-04T10:12:07.471Z,9.10
2022-10-04T10:14:42.460Z,9.10
2022-10-04T10:17:17.613Z,9.40
2022-10-04T10:20:23.173Z,9.17
2022-10-04T10:23:23.655Z,8.70
2022-10-04T10:26:15.209Z,10.37
2022-10-04T10:29:10.048Z,14.53
2022-10-04T10:31:50.913Z,18.43
2022-10-04T10:35:09.556Z,18.90
2022-10-04T10:38:13.291Z,18.60
2022-10-04T10:41:22.896Z,26.43
2022-10-04T10:44:04.609Z,35.40
2022-10-04T10:47:08.391Z,36.80
2022-10-04T10:50:14.315Z,36.43
2022-10-04T10:53:07.539Z,38.47
2022-10-04T10:55:44.631Z,39.87
2022-10-04T10:58:58.604Z,39.50
2022-10-04T11:02:04.935Z,38.83
2022-10-04T11:04:35.733Z,37.97
2022-10-04T11:07:37.218Z,36.60
2022-10-04T11:10:41.698Z,37.37
2022-10-04T11:13:48.342Z,35.07
2022-10-04T11:16:35.831Z,36.03
2022-10-04T11:19:24.099Z,32.33
2022-10-04T11:22:22.623Z,31.30
2022-10-04T11:25:08.186Z,30.17
2022-10-04T11:27:48.993Z,29.40
2022-10-04T11:30:26.544Z,31.10
2022-10-04T11:33:09.517Z,28.77
2022-10-04T11:35:54.707Z,26.37
2022-10-04T11:38:27.311Z,27.77
2022-10-04T11:41:14.490Z,27.20
2022-10-04T11:43:52.552Z,27.33
2022-10-04T11:46:24.403Z,26.77
2022-10-04T11:49:12.437Z,26.13
2022-10-04T11:52:02.163Z,24.03
2022-10-04T11:54:47.851Z,23.50
2022-10-04T11:57:31.269Z,21.93
2022-10-04T12:00:21.011Z,22.00
2022-10-04T12:03:25.021Z,21.70
2022-10-04T12:06:16.900Z,21.20
2022-10-04T12:09:04.898Z,22.03
2022-10-04T12:12:13.296Z,22.13
2022-10-04T12:14:45.645Z,21.13
2022-10-04T12:17:21.272Z,21.40
2022-10-04T12:20:11.356Z,21.50
2022-10-04T12:22:45.521Z,19.20
2022-10-04T12:25:44.696Z,18.90
2022-10-04T12:28:16.996Z,18.33
2022-10-04T12:30:43.675Z,18.17
2022-10-04T12:33:22.121Z,18.20
2022-10-04T12:35:48.810Z,17.60
2022-10-04T12:38:37.357Z,18.03
2022-10-04T12:41:25.899Z,18.43
2022-10-04T12:44:11.402Z,16.43
2022-10-04T12:46:54.678Z,17.47
2022-10-04T12:49:46.323Z,17.37
2022-10-04T12:52:24.595Z,16.97
2022-10-04T12:55:22.878Z,15.17
2022-10-04T12:58:21.724Z,16.53
2022-10-04T13:00:50.930Z,16.07
2022-10-04T13:03:43.490Z,15.50
2022-10-04T13:06:19.579Z,16.07
2022-10-04T13:09:04.668Z,14.63
2022-10-04T13:11:53.313Z,14.93
2022-10-04T13:14:28.903Z,15.47
2022-10-04T13:17:34.622Z,14.40
2022-10-04T13:20:21.058Z,14.40
2022-10-04T13:23:08.582Z,14.23
2022-10-04T13:26:04.854Z,13.57
2022-10-04T13:28:49.483Z,14.70
2022-10-04T13:31:46.341Z,15.90
2022-10-04T13:34:40.671Z,12.90
2022-10-04T13:37:40.182Z,14.17
2022-10-04T13:40:30.036Z,13.57
2022-10-04T13:43:08.429Z,12.67
2022-10-04T13:45:48.082Z,13.83
2022-10-04T13:48:30.308Z,13.63
2022-10-04T13:51:05.858Z,11.87
2022-10-04T13:54:17.178Z,13.33
2022-10-04T13:57:16.000Z,12.13
2022-10-04T14:00:06.737Z,13.23
2022-10-04T14:02:52.062Z,13.07
2022-10-04T14:05:25.065Z,12.23
2022-10-04T14:08:13.013Z,11.73
2022-10-04T14:10:58.962Z,11.57
2022-10-04T14:13:50.090Z,11.57
2022-10-04T14:16:41.487Z,10.77
2022-10-04T14:19:32.407Z,12.40
2022-10-04T14:22:05.787Z,11.20
2022-10-04T14:24:35.620Z,10.77
2022-10-04T14:27:09.032Z,11.40
2022-10-04T14:30:00.785Z,11.63
2022-10-04T14:33:03.420Z,11.50
2022-10-04T14:35:35.412Z,10.87
2022-10-04T14:38:27.916Z,10.50
2022-10-04T14:41:24.760Z,10.40
2022-10-04T14:44:15.673Z,10.20
2022-10-04T14:47:07.581Z,9.70
2022-10-04T14:50:00.717Z,10.30
2022-10-04T14:52:32.454Z,9.53
2022-10-04T14:55:10.982Z,9.23
2022-10-04T14:57:56.191Z,9.90
2022-10-04T15:01:01.500Z,8.83
2022-10-04T15:03:46.000Z,10.00
2022-10-04T15:06:23.357Z,10.60
2022-10-04T15:09:13.898Z,9.90
2022-10-04T15:12:02.334Z,9.43
2022-10-04T15:14:41.929Z,9.27
2022-10-04T15:17:24.355Z,9.07
2022-10-04T15:20:20.244Z,9.00
2022-10-04T15:22:53.737Z,8.30
2022-10-04T15:25:51.799Z,8.27
2022-10-04T15:28:54.319Z,8.03
2022-10-04T15:31:36.383Z,8.53
2022-10-04T15:34:21.576Z,8.13
2022-10-04T15:37:12.068Z,8.53
2022-10-04T15:39:59.448Z,7.47
2022-10-04T15:42:32.726Z,7.13
2022-10-04T15:45:17.465Z,7.60
2022-10-04T15:48:01.810Z,7.63
2022-10-04T15:50:31.597Z,7.60
2022-10-04T15:53:20.157Z,7.30
2022-10-04T15:56:24.408Z,7.73
2022-10-04T15:59:19.074Z,7.00
2022-10-04T16:02:16.216Z,7.27
2022-10-04T16:05:08.142Z,7.20
2022-10-04T16:08:14.953Z,7.47
2022-10-04T16:11:16.178Z,6.90
2022-10-04T16:13:51.501Z,7.00
2022-10-04T16:16:19.346Z,7.50
2022-10-04T16:18:59.816Z,7.00
2022-10-04T16:21:49.885Z,6.03
2022-10-04T16:24:22.382Z,6.50
2022-10-04T16:26:51.990Z,6.60
2022-10-04T16:29:37.234Z,7.30
2022-10-04T16:32:25.438Z,8.13
2022-10-04T16:35:24.490Z,7.80
2022-10-04T16:38:12.951Z,7.40
2022-10-04T16:40:51.922Z,7.40
2022-10-04T16:43:18.649Z,7.13
2022-10-04T16:46:07.109Z,7.20
2022-10-04T16:48:58.732Z,6.43
2022-10-04T16:51:40.504Z,6.70
2022-10-04T16:54:31.751Z,6.90
2022-10-04T16:56:59.288Z,6.97
2022-10-04T16:59:39.089Z,6.00
2022-10-04T17:02:14.960Z,6.10
2022-10-04T17:05:07.740Z,6.27
2022-10-04T17:07:52.427Z,6.60
2022-10-04T17:10:38.267Z,6.20
2022-10-04T17:13:23.496Z,6.13
2022-10-04T17:16:38.021Z,6.90
2022-10-04T17:19:29.153Z,6.57
2022-10-04T17:22:06.866Z,7.30
2022-10-04T17:24:47.358Z,7.03
2022-10-04T17:27:26.095Z,7.10
2022-10-04T17:30:18.935Z,7.00
2022-10-04T17:33:24.511Z,6.37
2022-10-04T17:36:26.026Z,6.23
2022-10-04T17:39:01.326Z,6.60
2022-10-04T17:41:46.928Z,6.97
2022-10-04T17:44:39.987Z,7.67
2022-10-04T17:47:20.276Z,7.53
2022-10-04T17:50:41.315Z,5.90
2022-10-04T17:53:37.890Z,6.43
2022-10-04T17:56:07.458Z,5.63
2022-10-04T17:58:47.871Z,6.43
2022-10-04T18:01:42.708Z,5.90
2022-10-04T18:04:35.296Z,6.03
2022-10-04T18:07:16.689Z,5.90
2022-10-04T18:09:56.146Z,6.37
2022-10-04T18:12:42.307Z,5.50
2022-10-04T18:15:34.298Z,5.80
2022-10-04T18:18:16.115Z,5.20
2022-10-04T18:20:54.575Z,5.60
2022-10-04T18:23:27.327Z,4.90
2022-10-04T18:26:01.377Z,5.73
2022-10-04T18:28:28.208Z,5.37
2022-10-04T18:31:05.574Z,4.80
2022-10-04T18:33:35.569Z,4.23
2022-10-04T18:36:27.348Z,4.40
2022-10-04T18:39:12.311Z,4.70
2022-10-04T18:41:54.668Z,5.13
2022-10-04T18:44:29.725Z,5.23
2022-10-04T18:47:02.224Z,5.30
2022-10-04T18:49:43.594Z,5.17
2022-10-04T18:52:10.267Z,5.43
2022-10-04T18:54:45.438Z,5.37
2022-10-04T18:57:27.006Z,4.57
2022-10-04T19:00:29.854Z,5.07
2022-10-04T19:03:16.865Z,5.23
2022-10-04T19:05:52.680Z,5.47
2022-10-04T19:08:39.505Z,5.23
2022-10-04T19:11:17.298Z,5.23
2022-10-04T19:13:54.299Z,5.33
2022-10-04T19:16:36.048Z,5.20
2022-10-04T19:19:02.992Z,5.77
2022-10-04T19:21:59.080Z,5.20
2022-10-04T19:24:34.236Z,4.67
2022-10-04T19:27:05.917Z,4.40
2022-10-04T19:30:02.022Z,4.90
2022-10-04T19:32:51.685Z,4.80
2022-10-04T19:35:46.182Z,5.20
2022-10-04T19:38:40.590Z,5.40
2022-10-04T19:41:38.179Z,5.10
2022-10-04T19:44:57.918Z,5.27
2022-10-04T19:47:25.059Z,5.03
2022-10-04T19:50:00.161Z,4.40
2022-10-04T19:53:03.234Z,4.23
2022-10-04T19:55:43.623Z,4.30
2022-10-04T19:58:29.924Z,3.83
2022-10-04T20:00:56.881Z,4.43
2022-10-04T20:03:23.814Z,3.97
2022-10-04T20:05:53.382Z,3.70
2022-10-04T20:08:47.508Z,3.60
2022-10-04T20:11:19.820Z,4.30
2022-10-04T20:14:10.121Z,3.83
2022-10-04T20:16:49.310Z,3.20
2022-10-04T20:19:28.489Z,3.80
2022-10-04T20:21:56.869Z,2.90
2022-10-04T20:24:41.342Z,3.60
2022-10-04T20:27:28.612Z,3.07
2022-10-04T20:29:57.093Z,3.83
2022-10-04T20:32:26.898Z,3.70
2022-10-04T20:34:54.881Z,3.57
2022-10-04T20:37:41.952Z,2.90
2022-10-04T20:40:08.838Z,2.90
2022-10-04T20:42:38.270Z,2.90
2022-10-04T20:45:11.247Z,2.53
2022-10-04T20:47:47.711Z,2.70
2022-10-04T20:50:36.114Z,2.50
2022-10-04T20:53:06.773Z,2.80
2022-10-04T20:55:36.747Z,2.63
2022-10-04T20:58:20.908Z,2.40
2022-10-04T21:00:56.875Z,2.50
2022-10-04T21:03:24.601Z,2.60
2022-10-04T21:06:06.885Z,1.90
2022-10-04T21:08:34.059Z,2.17
2022-10-04T21:11:14.311Z,2.10
2022-10-04T21:13:43.603Z,2.23
2022-10-04T21:16:10.634Z,2.13
2022-10-04T21:18:37.495Z,2.47
2022-10-04T21:21:04.363Z,2.20
2022-10-04T21:23:35.494Z,1.93
2022-10-04T21:26:24.834Z,2.00
2022-10-04T21:28:59.502Z,1.90
2022-10-04T21:31:26.279Z,2.37
2022-10-04T21:33:53.015Z,2.10
2022-10-04T21:36:19.702Z,1.70
2022-10-04T21:38:46.422Z,2.60
2022-10-04T21:41:13.083Z,2.20
2022-10-04T21:43:39.754Z,2.10
2022-10-04T21:46:06.879Z,1.57
2022-10-04T21:48:33.736Z,1.67
2022-10-04T21:51:00.454Z,2.03
2022-10-04T21:53:27.135Z,1.83
2022-10-04T21:55:53.808Z,2.10
2022-10-04T21:58:20.498Z,2.00
2022-10-04T22:00:47.271Z,1.90
2022-10-04T22:03:14.029Z,1.93
2022-10-04T22:05:40.805Z,1.80
2022-10-04T22:08:07.597Z,2.23
2022-10-04T22:10:34.330Z,1.50
2022-10-04T22:13:01.082Z,1.50
2022-10-04T22:15:28.452Z,2.13
2022-10-04T22:17:55.569Z,2.07
2022-10-04T22:20:23.439Z,1.70
2022-10-04T22:22:50.243Z,1.70
2022-10-04T22:25:19.756Z,1.80
2022-10-04T22:27:46.890Z,1.93
2022-10-04T22:30:36.294Z,2.07
2022-10-04T22:33:28.757Z,1.73
2022-10-04T22:35:59.050Z,1.50
2022-10-04T22:38:25.774Z,2.13
2022-10-04T22:40:53.151Z,2.20
2022-10-04T22:43:19.885Z,1.60
2022-10-04T22:45:46.682Z,2.17
2022-10-04T22:48:15.575Z,1.93
2022-10-04T22:50:43.015Z,1.90
2022-10-04T22:53:21.017Z,1.80
2022-10-04T22:55:51.738Z,2.30
2022-10-04T22:58:20.967Z,1.77
2022-10-04T23:00:49.167Z,1.70
2022-10-04T23:03:31.577Z,1.67
2022-10-04T23:06:02.900Z,2.03
2022-10-04T23:08:30.159Z,2.03
2022-10-04T23:10:58.909Z,1.80
2022-10-04T23:13:27.038Z,1.80
2022-10-04T23:15:59.053Z,1.87
2022-10-04T23:18:28.278Z,1.87
2022-10-04T23:21:00.360Z,1.60
2022-10-04T23:23:28.432Z,1.97
2022-10-04T23:25:55.621Z,1.90
2022-10-04T23:28:23.328Z,1.70
2022-10-04T23:31:01.922Z,1.70
2022-10-04T23:33:28.661Z,1.43
2022-10-04T23:35:55.432Z,1.37
2022-10-04T23:38:23.188Z,1.60
2022-10-04T23:40:49.910Z,1.60
2022-10-04T23:43:25.603Z,1.80
2022-10-04T23:45:55.305Z,1.80
2022-10-04T23:48:25.313Z,1.60
2022-10-04T23:50:54.272Z,1.60
2022-10-04T23:53:30.368Z,1.80
2022-10-04T23:56:02.437Z,1.50
2022-10-04T23:58:33.885Z,1.83
